sensor_id;sensor_type;location;lat;lon;timestamp;P1;durP1;ratioP1;P2;durP2;ratioP2
72284;SDS011;60220;53.552;10.092;2024-01-30T00:01:38;7.15;;;3.85;;
72284;SDS011;60220;53.552;10.092;2024-01-30T00:04:05;13.00;;;4.47;;
72284;SDS011;60220;53.552;10.092;2024-01-30T00:06:33;6.47;;;4.10;;
72284;SDS011;60220;53.552;10.092;2024-01-30T00:09:02;7.40;;;3.40;;
72284;SDS011;60220;53.552;10.092;2024-01-30T00:11:30;7.57;;;3.55;;
72284;SDS011;60220;53.552;10.092;2024-01-30T00:13:56;6.10;;;3.33;;
72284;SDS011;60220;53.552;10.092;2024-01-30T00:16:24;7.15;;;3.55;;
72284;SDS011;60220;53.552;10.092;2024-01-30T00:18:51;5.75;;;3.33;;
72284;SDS011;60220;53.552;10.092;2024-01-30T00:21:18;9.18;;;3.92;;
72284;SDS011;60220;53.552;10.092;2024-01-30T00:23:46;5.80;;;3.33;;
72284;SDS011;60220;53.552;10.092;2024-01-30T00:26:15;7.60;;;3.70;;
72284;SDS011;60220;53.552;10.092;2024-01-30T00:28:42;6.80;;;3.92;;
72284;SDS011;60220;53.552;10.092;2024-01-30T00:31:08;7.47;;;4.13;;
72284;SDS011;60220;53.552;10.092;2024-01-30T00:33:37;6.32;;;4.38;;
72284;SDS011;60220;53.552;10.092;2024-01-30T00:36:04;7.07;;;4.32;;
72284;SDS011;60220;53.552;10.092;2024-01-30T00:38:31;10.05;;;4.20;;
72284;SDS011;60220;53.552;10.092;2024-01-30T00:40:59;11.23;;;4.45;;
72284;SDS011;60220;53.552;10.092;2024-01-30T00:43:27;6.82;;;4.03;;
72284;SDS011;60220;53.552;10.092;2024-01-30T00:45:56;7.53;;;3.90;;
72284;SDS011;60220;53.552;10.092;2024-01-30T00:48:23;9.13;;;4.25;;
72284;SDS011;60220;53.552;10.092;2024-01-30T00:50:49;8.98;;;4.32;;
72284;SDS011;60220;53.552;10.092;2024-01-30T00:53:18;7.53;;;4.18;;
72284;SDS011;60220;53.552;10.092;2024-01-30T00:55:47;7.65;;;4.15;;
72284;SDS011;60220;53.552;10.092;2024-01-30T00:58:15;12.32;;;4.97;;
72284;SDS011;60220;53.552;10.092;2024-01-30T01:00:41;10.57;;;5.03;;
72284;SDS011;60220;53.552;10.092;2024-01-30T01:03:08;7.72;;;4.10;;
72284;SDS011;60220;53.552;10.092;2024-01-30T01:05:35;8.10;;;4.25;;
72284;SDS011;60220;53.552;10.092;2024-01-30T01:08:01;7.53;;;4.10;;
72284;SDS011;60220;53.552;10.092;2024-01-30T01:10:28;7.00;;;3.85;;
72284;SDS011;60220;53.552;10.092;2024-01-30T01:12:54;5.70;;;3.72;;
72284;SDS011;60220;53.552;10.092;2024-01-30T01:15:22;9.60;;;4.03;;
72284;SDS011;60220;53.552;10.092;2024-01-30T01:17:51;7.80;;;3.75;;
72284;SDS011;60220;53.552;10.092;2024-01-30T01:20:18;8.05;;;4.03;;
72284;SDS011;60220;53.552;10.092;2024-01-30T01:22:44;10.52;;;3.80;;
72284;SDS011;60220;53.552;10.092;2024-01-30T01:25:13;6.45;;;4.35;;
72284;SDS011;60220;53.552;10.092;2024-01-30T01:27:40;7.45;;;4.22;;
72284;SDS011;60220;53.552;10.092;2024-01-30T01:30:08;7.53;;;3.55;;
72284;SDS011;60220;53.552;10.092;2024-01-30T01:32:38;9.88;;;3.95;;
72284;SDS011;60220;53.552;10.092;2024-01-30T01:35:09;9.77;;;4.30;;
72284;SDS011;60220;53.552;10.092;2024-01-30T01:37:36;7.93;;;4.10;;
72284;SDS011;60220;53.552;10.092;2024-01-30T01:40:03;9.23;;;4.40;;
72284;SDS011;60220;53.552;10.092;2024-01-30T01:42:31;7.28;;;4.25;;
72284;SDS011;60220;53.552;10.092;2024-01-30T01:44:58;9.60;;;4.57;;
72284;SDS011;60220;53.552;10.092;2024-01-30T01:47:27;6.47;;;3.58;;
72284;SDS011;60220;53.552;10.092;2024-01-30T01:49:55;16.00;;;4.43;;
72284;SDS011;60220;53.552;10.092;2024-01-30T01:52:21;10.93;;;4.75;;
72284;SDS011;60220;53.552;10.092;2024-01-30T01:54:48;7.18;;;3.92;;
72284;SDS011;60220;53.552;10.092;2024-01-30T01:57:15;9.32;;;4.07;;
72284;SDS011;60220;53.552;10.092;2024-01-30T01:59:44;10.90;;;4.22;;
72284;SDS011;60220;53.552;10.092;2024-01-30T02:02:10;8.07;;;4.40;;
72284;SDS011;60220;53.552;10.092;2024-01-30T02:04:39;7.40;;;4.45;;
72284;SDS011;60220;53.552;10.092;2024-01-30T02:07:07;6.78;;;4.32;;
72284;SDS011;60220;53.552;10.092;2024-01-30T02:09:33;7.90;;;4.65;;
72284;SDS011;60220;53.552;10.092;2024-01-30T02:12:02;8.70;;;4.03;;
72284;SDS011;60220;53.552;10.092;2024-01-30T02:14:30;8.50;;;4.63;;
72284;SDS011;60220;53.552;10.092;2024-01-30T02:16:56;9.05;;;4.57;;
72284;SDS011;60220;53.552;10.092;2024-01-30T02:19:25;10.43;;;4.78;;
72284;SDS011;60220;53.552;10.092;2024-01-30T02:21:53;10.80;;;4.70;;
72284;SDS011;60220;53.552;10.092;2024-01-30T02:24:20;7.90;;;4.68;;
72284;SDS011;60220;53.552;10.092;2024-01-30T02:26:47;12.50;;;5.45;;
72284;SDS011;60220;53.552;10.092;2024-01-30T02:29:13;8.88;;;4.43;;
72284;SDS011;60220;53.552;10.092;2024-01-30T02:31:40;8.43;;;4.07;;
72284;SDS011;60220;53.552;10.092;2024-01-30T02:34:06;7.90;;;4.00;;
72284;SDS011;60220;53.552;10.092;2024-01-30T02:36:33;11.52;;;4.82;;
72284;SDS011;60220;53.552;10.092;2024-01-30T02:39:03;10.30;;;3.58;;
72284;SDS011;60220;53.552;10.092;2024-01-30T02:41:30;7.40;;;3.83;;
72284;SDS011;60220;53.552;10.092;2024-01-30T02:43:56;9.38;;;4.43;;
72284;SDS011;60220;53.552;10.092;2024-01-30T02:46:23;8.90;;;4.30;;
72284;SDS011;60220;53.552;10.092;2024-01-30T02:48:50;12.32;;;4.95;;
72284;SDS011;60220;53.552;10.092;2024-01-30T02:51:16;6.93;;;4.50;;
72284;SDS011;60220;53.552;10.092;2024-01-30T02:53:45;9.57;;;4.82;;
72284;SDS011;60220;53.552;10.092;2024-01-30T02:56:13;7.75;;;4.97;;
72284;SDS011;60220;53.552;10.092;2024-01-30T02:58:43;12.38;;;4.43;;
72284;SDS011;60220;53.552;10.092;2024-01-30T03:01:12;10.50;;;4.70;;
72284;SDS011;60220;53.552;10.092;2024-01-30T03:03:39;9.45;;;5.07;;
72284;SDS011;60220;53.552;10.092;2024-01-30T03:06:08;9.55;;;4.57;;
72284;SDS011;60220;53.552;10.092;2024-01-30T03:08:37;8.90;;;4.88;;
72284;SDS011;60220;53.552;10.092;2024-01-30T03:11:03;9.57;;;4.38;;
72284;SDS011;60220;53.552;10.092;2024-01-30T03:13:34;7.88;;;4.50;;
72284;SDS011;60220;53.552;10.092;2024-01-30T03:16:03;11.70;;;4.40;;
72284;SDS011;60220;53.552;10.092;2024-01-30T03:18:30;9.07;;;4.30;;
72284;SDS011;60220;53.552;10.092;2024-01-30T03:20:56;9.05;;;4.57;;
72284;SDS011;60220;53.552;10.092;2024-01-30T03:23:25;7.75;;;4.25;;
72284;SDS011;60220;53.552;10.092;2024-01-30T03:25:52;11.65;;;5.00;;
72284;SDS011;60220;53.552;10.092;2024-01-30T03:28:18;10.52;;;4.80;;
72284;SDS011;60220;53.552;10.092;2024-01-30T03:30:46;11.52;;;5.07;;
72284;SDS011;60220;53.552;10.092;2024-01-30T03:33:13;9.85;;;5.05;;
72284;SDS011;60220;53.552;10.092;2024-01-30T03:35:39;10.10;;;5.35;;
72284;SDS011;60220;53.552;10.092;2024-01-30T03:38:08;7.95;;;4.65;;
72284;SDS011;60220;53.552;10.092;2024-01-30T03:40:35;13.07;;;5.30;;
72284;SDS011;60220;53.552;10.092;2024-01-30T03:43:02;9.75;;;4.95;;
72284;SDS011;60220;53.552;10.092;2024-01-30T03:45:30;11.43;;;4.72;;
72284;SDS011;60220;53.552;10.092;2024-01-30T03:48:00;12.07;;;5.65;;
72284;SDS011;60220;53.552;10.092;2024-01-30T03:50:29;9.23;;;5.30;;
72284;SDS011;60220;53.552;10.092;2024-01-30T03:52:56;13.07;;;6.05;;
72284;SDS011;60220;53.552;10.092;2024-01-30T03:55:22;8.32;;;4.68;;
72284;SDS011;60220;53.552;10.092;2024-01-30T03:57:49;10.02;;;5.28;;
72284;SDS011;60220;53.552;10.092;2024-01-30T04:00:16;11.60;;;5.03;;
72284;SDS011;60220;53.552;10.092;2024-01-30T04:02:43;11.55;;;4.70;;
72284;SDS011;60220;53.552;10.092;2024-01-30T04:05:12;10.85;;;6.32;;
72284;SDS011;60220;53.552;10.092;2024-01-30T04:07:39;11.45;;;5.30;;
72284;SDS011;60220;53.552;10.092;2024-01-30T04:10:09;8.75;;;5.45;;
72284;SDS011;60220;53.552;10.092;2024-01-30T04:12:35;12.65;;;6.30;;
72284;SDS011;60220;53.552;10.092;2024-01-30T04:15:02;10.85;;;5.90;;
72284;SDS011;60220;53.552;10.092;2024-01-30T04:17:29;12.05;;;5.50;;
72284;SDS011;60220;53.552;10.092;2024-01-30T04:19:56;11.80;;;5.50;;
72284;SDS011;60220;53.552;10.092;2024-01-30T04:22:24;9.20;;;5.28;;
72284;SDS011;60220;53.552;10.092;2024-01-30T04:24:51;10.63;;;5.22;;
72284;SDS011;60220;53.552;10.092;2024-01-30T04:27:17;10.50;;;5.22;;
72284;SDS011;60220;53.552;10.092;2024-01-30T04:29:44;12.98;;;5.63;;
72284;SDS011;60220;53.552;10.092;2024-01-30T04:32:10;10.68;;;5.63;;
72284;SDS011;60220;53.552;10.092;2024-01-30T04:34:37;12.60;;;5.78;;
72284;SDS011;60220;53.552;10.092;2024-01-30T04:37:04;16.40;;;6.03;;
72284;SDS011;60220;53.552;10.092;2024-01-30T04:39:32;12.13;;;6.22;;
72284;SDS011;60220;53.552;10.092;2024-01-30T04:41:59;14.30;;;5.53;;
72284;SDS011;60220;53.552;10.092;2024-01-30T04:44:28;10.30;;;5.43;;
72284;SDS011;60220;53.552;10.092;2024-01-30T04:46:55;14.95;;;7.25;;
72284;SDS011;60220;53.552;10.092;2024-01-30T04:49:24;11.43;;;5.43;;
72284;SDS011;60220;53.552;10.092;2024-01-30T04:51:50;16.05;;;6.43;;
72284;SDS011;60220;53.552;10.092;2024-01-30T04:54:17;9.52;;;5.72;;
72284;SDS011;60220;53.552;10.092;2024-01-30T04:56:47;19.42;;;7.40;;
72284;SDS011;60220;53.552;10.092;2024-01-30T04:59:14;11.63;;;5.63;;
72284;SDS011;60220;53.552;10.092;2024-01-30T05:01:40;10.52;;;6.18;;
72284;SDS011;60220;53.552;10.092;2024-01-30T05:04:07;9.80;;;5.97;;
72284;SDS011;60220;53.552;10.092;2024-01-30T05:06:36;10.55;;;5.65;;
72284;SDS011;60220;53.552;10.092;2024-01-30T05:09:03;14.93;;;6.25;;
72284;SDS011;60220;53.552;10.092;2024-01-30T05:11:30;12.13;;;5.88;;
72284;SDS011;60220;53.552;10.092;2024-01-30T05:13:58;11.27;;;5.00;;
72284;SDS011;60220;53.552;10.092;2024-01-30T05:16:27;16.88;;;5.70;;
72284;SDS011;60220;53.552;10.092;2024-01-30T05:18:53;14.90;;;6.65;;
72284;SDS011;60220;53.552;10.092;2024-01-30T05:21:20;10.73;;;5.82;;
72284;SDS011;60220;53.552;10.092;2024-01-30T05:23:47;13.15;;;6.72;;
72284;SDS011;60220;53.552;10.092;2024-01-30T05:26:16;11.50;;;5.82;;
72284;SDS011;60220;53.552;10.092;2024-01-30T05:28:43;13.80;;;5.70;;
72284;SDS011;60220;53.552;10.092;2024-01-30T05:31:11;12.98;;;6.03;;
72284;SDS011;60220;53.552;10.092;2024-01-30T05:33:37;10.80;;;6.57;;
72284;SDS011;60220;53.552;10.092;2024-01-30T05:36:07;11.50;;;6.38;;
72284;SDS011;60220;53.552;10.092;2024-01-30T05:38:33;12.45;;;5.50;;
72284;SDS011;60220;53.552;10.092;2024-01-30T05:41:01;15.75;;;6.40;;
72284;SDS011;60220;53.552;10.092;2024-01-30T05:43:30;12.55;;;6.55;;
72284;SDS011;60220;53.552;10.092;2024-01-30T05:45:59;15.23;;;7.32;;
72284;SDS011;60220;53.552;10.092;2024-01-30T05:48:30;13.52;;;6.70;;
72284;SDS011;60220;53.552;10.092;2024-01-30T05:50:59;15.85;;;7.20;;
72284;SDS011;60220;53.552;10.092;2024-01-30T05:53:25;12.63;;;6.18;;
72284;SDS011;60220;53.552;10.092;2024-01-30T05:55:53;19.77;;;6.60;;
72284;SDS011;60220;53.552;10.092;2024-01-30T05:58:19;15.65;;;6.47;;
72284;SDS011;60220;53.552;10.092;2024-01-30T06:00:46;14.25;;;6.35;;
72284;SDS011;60220;53.552;10.092;2024-01-30T06:03:13;14.10;;;6.32;;
72284;SDS011;60220;53.552;10.092;2024-01-30T06:05:41;12.20;;;6.78;;
72284;SDS011;60220;53.552;10.092;2024-01-30T06:08:08;13.68;;;6.82;;
72284;SDS011;60220;53.552;10.092;2024-01-30T06:10:34;20.85;;;7.70;;
72284;SDS011;60220;53.552;10.092;2024-01-30T06:13:01;12.15;;;6.30;;
72284;SDS011;60220;53.552;10.092;2024-01-30T06:15:30;13.00;;;6.30;;
72284;SDS011;60220;53.552;10.092;2024-01-30T06:17:57;12.95;;;6.60;;
72284;SDS011;60220;53.552;10.092;2024-01-30T06:20:27;15.98;;;7.22;;
72284;SDS011;60220;53.552;10.092;2024-01-30T06:22:55;12.60;;;6.70;;
72284;SDS011;60220;53.552;10.092;2024-01-30T06:25:21;14.25;;;7.70;;
72284;SDS011;60220;53.552;10.092;2024-01-30T06:27:48;10.88;;;5.95;;
72284;SDS011;60220;53.552;10.092;2024-01-30T06:30:15;12.85;;;6.63;;
72284;SDS011;60220;53.552;10.092;2024-01-30T06:32:41;14.50;;;7.05;;
72284;SDS011;60220;53.552;10.092;2024-01-30T06:35:08;17.92;;;8.60;;
72284;SDS011;60220;53.552;10.092;2024-01-30T06:37:35;16.63;;;7.63;;
72284;SDS011;60220;53.552;10.092;2024-01-30T06:40:04;11.95;;;6.13;;
72284;SDS011;60220;53.552;10.092;2024-01-30T06:42:31;18.92;;;7.60;;
72284;SDS011;60220;53.552;10.092;2024-01-30T06:44:58;11.48;;;6.93;;
72284;SDS011;60220;53.552;10.092;2024-01-30T06:47:27;13.52;;;6.55;;
72284;SDS011;60220;53.552;10.092;2024-01-30T06:49:53;18.65;;;7.40;;
72284;SDS011;60220;53.552;10.092;2024-01-30T06:52:20;27.77;;;14.02;;
72284;SDS011;60220;53.552;10.092;2024-01-30T06:54:47;16.58;;;6.82;;
72284;SDS011;60220;53.552;10.092;2024-01-30T06:57:15;15.32;;;6.80;;
72284;SDS011;60220;53.552;10.092;2024-01-30T06:59:43;20.35;;;6.97;;
72284;SDS011;60220;53.552;10.092;2024-01-30T07:02:10;20.98;;;6.85;;
72284;SDS011;60220;53.552;10.092;2024-01-30T07:04:37;16.83;;;7.93;;
72284;SDS011;60220;53.552;10.092;2024-01-30T07:07:04;15.75;;;7.28;;
72284;SDS011;60220;53.552;10.092;2024-01-30T07:09:36;13.63;;;7.03;;
72284;SDS011;60220;53.552;10.092;2024-01-30T07:12:03;12.88;;;6.38;;
72284;SDS011;60220;53.552;10.092;2024-01-30T07:14:35;18.42;;;6.85;;
72284;SDS011;60220;53.552;10.092;2024-01-30T07:17:01;12.98;;;6.90;;
72284;SDS011;60220;53.552;10.092;2024-01-30T07:19:28;14.43;;;7.60;;
72284;SDS011;60220;53.552;10.092;2024-01-30T07:21:55;14.48;;;7.93;;
72284;SDS011;60220;53.552;10.092;2024-01-30T07:24:21;22.17;;;12.48;;
72284;SDS011;60220;53.552;10.092;2024-01-30T07:26:48;20.77;;;9.15;;
72284;SDS011;60220;53.552;10.092;2024-01-30T07:29:17;15.77;;;8.23;;
72284;SDS011;60220;53.552;10.092;2024-01-30T07:31:45;10.77;;;7.03;;
72284;SDS011;60220;53.552;10.092;2024-01-30T07:34:11;14.95;;;6.50;;
72284;SDS011;60220;53.552;10.092;2024-01-30T07:36:38;13.20;;;7.30;;
72284;SDS011;60220;53.552;10.092;2024-01-30T07:39:05;12.98;;;7.45;;
72284;SDS011;60220;53.552;10.092;2024-01-30T07:41:31;12.80;;;6.53;;
72284;SDS011;60220;53.552;10.092;2024-01-30T07:43:58;15.30;;;7.07;;
72284;SDS011;60220;53.552;10.092;2024-01-30T07:46:25;13.85;;;6.72;;
72284;SDS011;60220;53.552;10.092;2024-01-30T07:48:53;15.65;;;7.28;;
72284;SDS011;60220;53.552;10.092;2024-01-30T07:51:20;14.68;;;7.68;;
72284;SDS011;60220;53.552;10.092;2024-01-30T07:53:47;12.35;;;6.93;;
72284;SDS011;60220;53.552;10.092;2024-01-30T07:56:14;14.45;;;7.63;;
72284;SDS011;60220;53.552;10.092;2024-01-30T07:58:41;13.27;;;7.32;;
72284;SDS011;60220;53.552;10.092;2024-01-30T08:01:07;15.48;;;7.45;;
72284;SDS011;60220;53.552;10.092;2024-01-30T08:03:34;16.50;;;8.23;;
72284;SDS011;60220;53.552;10.092;2024-01-30T08:06:03;13.57;;;7.95;;
72284;SDS011;60220;53.552;10.092;2024-01-30T08:08:30;16.15;;;7.75;;
72284;SDS011;60220;53.552;10.092;2024-01-30T08:10:59;16.17;;;7.88;;
72284;SDS011;60220;53.552;10.092;2024-01-30T08:13:28;14.02;;;7.25;;
72284;SDS011;60220;53.552;10.092;2024-01-30T08:15:54;19.88;;;8.00;;
72284;SDS011;60220;53.552;10.092;2024-01-30T08:18:21;16.17;;;7.53;;
72284;SDS011;60220;53.552;10.092;2024-01-30T08:20:47;15.05;;;8.63;;
72284;SDS011;60220;53.552;10.092;2024-01-30T08:23:16;18.92;;;9.27;;
72284;SDS011;60220;53.552;10.092;2024-01-30T08:25:43;20.33;;;9.23;;
72284;SDS011;60220;53.552;10.092;2024-01-30T08:28:09;21.38;;;8.73;;
72284;SDS011;60220;53.552;10.092;2024-01-30T08:30:36;21.00;;;9.07;;
72284;SDS011;60220;53.552;10.092;2024-01-30T08:33:04;15.02;;;8.55;;
72284;SDS011;60220;53.552;10.092;2024-01-30T08:35:30;19.73;;;8.70;;
72284;SDS011;60220;53.552;10.092;2024-01-30T08:37:58;19.90;;;8.68;;
72284;SDS011;60220;53.552;10.092;2024-01-30T08:40:26;17.88;;;9.48;;
72284;SDS011;60220;53.552;10.092;2024-01-30T08:42:53;16.10;;;9.25;;
72284;SDS011;60220;53.552;10.092;2024-01-30T08:45:20;17.58;;;8.40;;
72284;SDS011;60220;53.552;10.092;2024-01-30T08:47:47;16.73;;;8.93;;
72284;SDS011;60220;53.552;10.092;2024-01-30T08:50:14;16.33;;;8.00;;
72284;SDS011;60220;53.552;10.092;2024-01-30T08:52:40;29.75;;;9.23;;
72284;SDS011;60220;53.552;10.092;2024-01-30T08:55:07;18.35;;;8.85;;
72284;SDS011;60220;53.552;10.092;2024-01-30T08:57:35;22.02;;;8.82;;
72284;SDS011;60220;53.552;10.092;2024-01-30T09:00:02;16.20;;;9.40;;
72284;SDS011;60220;53.552;10.092;2024-01-30T09:02:31;24.55;;;9.63;;
72284;SDS011;60220;53.552;10.092;2024-01-30T09:04:58;19.77;;;9.80;;
72284;SDS011;60220;53.552;10.092;2024-01-30T09:07:27;19.55;;;10.73;;
72284;SDS011;60220;53.552;10.092;2024-01-30T09:09:56;18.10;;;8.90;;
72284;SDS011;60220;53.552;10.092;2024-01-30T09:12:23;17.23;;;9.77;;
72284;SDS011;60220;53.552;10.092;2024-01-30T09:14:53;18.08;;;9.00;;
72284;SDS011;60220;53.552;10.092;2024-01-30T09:17:20;19.38;;;8.88;;
72284;SDS011;60220;53.552;10.092;2024-01-30T09:19:46;17.20;;;7.68;;
72284;SDS011;60220;53.552;10.092;2024-01-30T09:22:13;16.08;;;9.20;;
72284;SDS011;60220;53.552;10.092;2024-01-30T09:24:40;16.50;;;8.30;;
72284;SDS011;60220;53.552;10.092;2024-01-30T09:27:07;17.17;;;7.65;;
72284;SDS011;60220;53.552;10.092;2024-01-30T09:29:33;15.00;;;8.10;;
72284;SDS011;60220;53.552;10.092;2024-01-30T09:32:05;16.85;;;9.20;;
72284;SDS011;60220;53.552;10.092;2024-01-30T09:34:34;16.55;;;8.98;;
72284;SDS011;60220;53.552;10.092;2024-01-30T09:37:00;19.60;;;8.25;;
72284;SDS011;60220;53.552;10.092;2024-01-30T09:39:27;13.63;;;7.55;;
72284;SDS011;60220;53.552;10.092;2024-01-30T09:41:55;13.57;;;8.27;;
72284;SDS011;60220;53.552;10.092;2024-01-30T09:44:28;15.35;;;7.68;;
72284;SDS011;60220;53.552;10.092;2024-01-30T09:46:55;17.88;;;8.65;;
72284;SDS011;60220;53.552;10.092;2024-01-30T09:49:25;15.57;;;7.93;;
72284;SDS011;60220;53.552;10.092;2024-01-30T09:51:54;14.05;;;7.22;;
72284;SDS011;60220;53.552;10.092;2024-01-30T09:54:24;20.35;;;8.18;;
72284;SDS011;60220;53.552;10.092;2024-01-30T09:56:50;14.73;;;8.07;;
72284;SDS011;60220;53.552;10.092;2024-01-30T09:59:17;14.63;;;8.20;;
72284;SDS011;60220;53.552;10.092;2024-01-30T10:01:44;20.38;;;9.50;;
72284;SDS011;60220;53.552;10.092;2024-01-30T10:04:11;20.00;;;10.07;;
72284;SDS011;60220;53.552;10.092;2024-01-30T10:06:39;18.42;;;8.57;;
72284;SDS011;60220;53.552;10.092;2024-01-30T10:09:06;15.98;;;8.85;;
72284;SDS011;60220;53.552;10.092;2024-01-30T10:11:34;20.17;;;9.35;;
72284;SDS011;60220;53.552;10.092;2024-01-30T10:14:01;15.68;;;9.73;;
72284;SDS011;60220;53.552;10.092;2024-01-30T10:16:27;16.70;;;9.75;;
72284;SDS011;60220;53.552;10.092;2024-01-30T10:18:54;16.67;;;8.93;;
72284;SDS011;60220;53.552;10.092;2024-01-30T10:21:21;19.77;;;8.82;;
72284;SDS011;60220;53.552;10.092;2024-01-30T10:23:49;17.75;;;7.90;;
72284;SDS011;60220;53.552;10.092;2024-01-30T10:26:15;13.35;;;7.60;;
72284;SDS011;60220;53.552;10.092;2024-01-30T10:28:42;13.93;;;7.75;;
72284;SDS011;60220;53.552;10.092;2024-01-30T10:31:15;23.90;;;9.18;;
72284;SDS011;60220;53.552;10.092;2024-01-30T10:33:45;15.05;;;8.48;;
72284;SDS011;60220;53.552;10.092;2024-01-30T10:36:13;13.98;;;7.25;;
72284;SDS011;60220;53.552;10.092;2024-01-30T10:38:40;19.27;;;8.30;;
72284;SDS011;60220;53.552;10.092;2024-01-30T10:41:12;13.73;;;7.93;;
72284;SDS011;60220;53.552;10.092;2024-01-30T10:43:44;12.43;;;7.85;;
72284;SDS011;60220;53.552;10.092;2024-01-30T10:48:46;13.90;;;7.18;;
72284;SDS011;60220;53.552;10.092;2024-01-30T10:51:18;15.93;;;7.55;;
72284;SDS011;60220;53.552;10.092;2024-01-30T10:53:48;12.07;;;6.95;;
72284;SDS011;60220;53.552;10.092;2024-01-30T10:56:17;10.98;;;6.60;;
72284;SDS011;60220;53.552;10.092;2024-01-30T10:58:46;12.25;;;6.68;;
72284;SDS011;60220;53.552;10.092;2024-01-30T11:01:14;13.35;;;6.93;;
72284;SDS011;60220;53.552;10.092;2024-01-30T11:03:43;13.40;;;7.05;;
72284;SDS011;60220;53.552;10.092;2024-01-30T11:06:11;11.32;;;7.03;;
72284;SDS011;60220;53.552;10.092;2024-01-30T11:08:39;12.82;;;7.80;;
72284;SDS011;60220;53.552;10.092;2024-01-30T11:11:08;12.32;;;7.53;;
72284;SDS011;60220;53.552;10.092;2024-01-30T11:13:37;15.23;;;8.35;;
72284;SDS011;60220;53.552;10.092;2024-01-30T11:16:04;12.80;;;6.57;;
72284;SDS011;60220;53.552;10.092;2024-01-30T11:18:32;18.00;;;7.78;;
72284;SDS011;60220;53.552;10.092;2024-01-30T11:21:04;12.18;;;6.80;;
72284;SDS011;60220;53.552;10.092;2024-01-30T11:23:34;16.00;;;7.05;;
72284;SDS011;60220;53.552;10.092;2024-01-30T11:26:02;14.35;;;7.47;;
72284;SDS011;60220;53.552;10.092;2024-01-30T11:28:33;12.65;;;7.22;;
72284;SDS011;60220;53.552;10.092;2024-01-30T11:31:05;12.73;;;7.45;;
72284;SDS011;60220;53.552;10.092;2024-01-30T11:33:33;13.38;;;7.43;;
72284;SDS011;60220;53.552;10.092;2024-01-30T11:36:00;11.88;;;6.72;;
72284;SDS011;60220;53.552;10.092;2024-01-30T11:38:28;15.35;;;6.70;;
72284;SDS011;60220;53.552;10.092;2024-01-30T11:40:54;10.52;;;6.55;;
72284;SDS011;60220;53.552;10.092;2024-01-30T11:43:24;12.52;;;6.78;;
72284;SDS011;60220;53.552;10.092;2024-01-30T11:45:51;11.07;;;6.28;;
72284;SDS011;60220;53.552;10.092;2024-01-30T11:48:21;14.63;;;7.47;;
72284;SDS011;60220;53.552;10.092;2024-01-30T11:50:48;13.52;;;7.60;;
72284;SDS011;60220;53.552;10.092;2024-01-30T11:53:19;13.48;;;6.95;;
72284;SDS011;60220;53.552;10.092;2024-01-30T11:55:49;11.98;;;7.00;;
72284;SDS011;60220;53.552;10.092;2024-01-30T11:58:16;12.18;;;7.43;;
72284;SDS011;60220;53.552;10.092;2024-01-30T12:00:42;14.70;;;6.53;;
72284;SDS011;60220;53.552;10.092;2024-01-30T12:03:09;11.57;;;6.93;;
72284;SDS011;60220;53.552;10.092;2024-01-30T12:05:41;10.00;;;6.18;;
72284;SDS011;60220;53.552;10.092;2024-01-30T12:08:14;14.75;;;6.78;;
72284;SDS011;60220;53.552;10.092;2024-01-30T12:10:41;11.95;;;6.38;;
72284;SDS011;60220;53.552;10.092;2024-01-30T12:13:08;13.48;;;6.70;;
72284;SDS011;60220;53.552;10.092;2024-01-30T12:15:35;13.13;;;6.32;;
72284;SDS011;60220;53.552;10.092;2024-01-30T12:18:05;13.00;;;6.85;;
72284;SDS011;60220;53.552;10.092;2024-01-30T12:20:32;10.77;;;6.40;;
72284;SDS011;60220;53.552;10.092;2024-01-30T12:23:00;14.13;;;7.68;;
72284;SDS011;60220;53.552;10.092;2024-01-30T12:25:27;13.57;;;7.35;;
72284;SDS011;60220;53.552;10.092;2024-01-30T12:27:57;12.07;;;6.30;;
72284;SDS011;60220;53.552;10.092;2024-01-30T12:30:24;14.68;;;7.50;;
72284;SDS011;60220;53.552;10.092;2024-01-30T12:32:50;12.02;;;6.65;;
72284;SDS011;60220;53.552;10.092;2024-01-30T12:35:17;11.65;;;6.90;;
72284;SDS011;60220;53.552;10.092;2024-01-30T12:37:45;10.32;;;6.75;;
72284;SDS011;60220;53.552;10.092;2024-01-30T12:40:15;12.10;;;6.97;;
72284;SDS011;60220;53.552;10.092;2024-01-30T12:42:42;18.52;;;6.82;;
72284;SDS011;60220;53.552;10.092;2024-01-30T12:45:11;12.50;;;6.60;;
72284;SDS011;60220;53.552;10.092;2024-01-30T12:47:38;14.15;;;6.53;;
72284;SDS011;60220;53.552;10.092;2024-01-30T12:50:04;12.23;;;6.45;;
72284;SDS011;60220;53.552;10.092;2024-01-30T12:52:32;11.27;;;7.57;;
72284;SDS011;60220;53.552;10.092;2024-01-30T12:54:58;16.48;;;7.15;;
72284;SDS011;60220;53.552;10.092;2024-01-30T12:57:29;10.77;;;6.25;;
72284;SDS011;60220;53.552;10.092;2024-01-30T12:59:55;11.98;;;6.97;;
72284;SDS011;60220;53.552;10.092;2024-01-30T13:02:22;11.48;;;6.68;;
72284;SDS011;60220;53.552;10.092;2024-01-30T13:04:49;12.10;;;6.25;;
72284;SDS011;60220;53.552;10.092;2024-01-30T13:07:16;15.13;;;7.03;;
72284;SDS011;60220;53.552;10.092;2024-01-30T13:09:43;11.20;;;6.82;;
72284;SDS011;60220;53.552;10.092;2024-01-30T13:12:11;10.07;;;5.43;;
72284;SDS011;60220;53.552;10.092;2024-01-30T13:14:39;11.02;;;6.05;;
72284;SDS011;60220;53.552;10.092;2024-01-30T13:17:06;11.73;;;6.07;;
72284;SDS011;60220;53.552;10.092;2024-01-30T13:19:33;9.77;;;6.35;;
72284;SDS011;60220;53.552;10.092;2024-01-30T13:21:59;10.93;;;5.65;;
72284;SDS011;60220;53.552;10.092;2024-01-30T13:24:28;12.07;;;6.60;;
72284;SDS011;60220;53.552;10.092;2024-01-30T13:26:57;11.70;;;6.05;;
72284;SDS011;60220;53.552;10.092;2024-01-30T13:29:24;12.43;;;6.07;;
72284;SDS011;60220;53.552;10.092;2024-01-30T13:31:52;11.18;;;7.00;;
72284;SDS011;60220;53.552;10.092;2024-01-30T13:34:18;11.40;;;6.13;;
72284;SDS011;60220;53.552;10.092;2024-01-30T13:36:47;17.23;;;6.68;;
72284;SDS011;60220;53.552;10.092;2024-01-30T13:39:14;13.75;;;6.13;;
72284;SDS011;60220;53.552;10.092;2024-01-30T13:41:43;17.17;;;6.60;;
72284;SDS011;60220;53.552;10.092;2024-01-30T13:44:12;12.90;;;6.18;;
72284;SDS011;60220;53.552;10.092;2024-01-30T13:46:39;11.32;;;6.35;;
72284;SDS011;60220;53.552;10.092;2024-01-30T13:49:07;10.32;;;6.07;;
72284;SDS011;60220;53.552;10.092;2024-01-30T13:51:33;11.68;;;5.60;;
72284;SDS011;60220;53.552;10.092;2024-01-30T13:54:02;11.85;;;5.97;;
72284;SDS011;60220;53.552;10.092;2024-01-30T13:56:29;9.13;;;5.63;;
72284;SDS011;60220;53.552;10.092;2024-01-30T13:58:56;12.00;;;5.95;;
72284;SDS011;60220;53.552;10.092;2024-01-30T14:01:25;14.32;;;5.75;;
72284;SDS011;60220;53.552;10.092;2024-01-30T14:03:51;13.55;;;5.95;;
72284;SDS011;60220;53.552;10.092;2024-01-30T14:06:19;9.85;;;5.85;;
72284;SDS011;60220;53.552;10.092;2024-01-30T14:08:48;15.30;;;5.45;;
72284;SDS011;60220;53.552;10.092;2024-01-30T14:11:15;11.40;;;5.93;;
72284;SDS011;60220;53.552;10.092;2024-01-30T14:13:42;11.10;;;5.55;;
72284;SDS011;60220;53.552;10.092;2024-01-30T14:16:09;11.73;;;5.38;;
72284;SDS011;60220;53.552;10.092;2024-01-30T14:18:35;12.02;;;5.60;;
72284;SDS011;60220;53.552;10.092;2024-01-30T14:21:02;11.63;;;5.60;;
72284;SDS011;60220;53.552;10.092;2024-01-30T14:23:30;9.77;;;5.47;;
72284;SDS011;60220;53.552;10.092;2024-01-30T14:25:59;13.93;;;5.70;;
72284;SDS011;60220;53.552;10.092;2024-01-30T14:28:26;8.00;;;5.18;;